Skip to Main Content
SEARCH:
Location Air RH Dwp Precip Type Wind Speed Wind Gust Direction Pavement Temperature Date/Time
Hatem Bridge US 40 E/B 79 74 70 None - 15 mph N 97 - 97 7/29/2016 11:53:00 AM
I-270 AT I-370 - - - No Data Available - - No Data Available -
I-270 AT MD-109 84 62 69 None Calm 6 mph N 106 - 109 7/29/2016 11:50:00 AM
I-495 AT American Legion Bridge 82 73 73 None Calm 11 mph NW 104 - 107 7/29/2016 11:50:00 AM
I-68 AT MD-219 71 86 67 None Calm 6 mph NW 93 - 94 7/29/2016 11:50:00 AM
I-68 AT Savage Mt 74 70 63 None 5 mph 9 mph N 101 - 106 7/29/2016 11:50:00 AM
I-68 AT Sideling Hill 80 74 71 None Calm 9 mph NW 101 - 104 7/29/2016 11:50:00 AM
I-68 AT WV Line 74 76 67 None Calm 10 mph W 91 - 94 7/29/2016 11:50:00 AM
I-695 AT I-83 82 68 70 None 6 mph 12 mph N 103 - 106 7/29/2016 11:50:00 AM
I-70 AT Fred-Wash Co. 80 82 74 None 4 mph 8 mph NW 112 - 112 7/29/2016 11:50:00 AM
I-70 AT I-695 86 62 71 None Calm 8 mph N 106 - 82 7/29/2016 11:50:00 AM
I-70 AT I-81 84 62 70 None 4 mph 12 mph NW 111 - 111 7/29/2016 11:50:00 AM
I-70 AT MD-27 82 65 70 None Calm 6 mph N 108 - 112 7/29/2016 11:50:00 AM
I-70 AT MD-32 83 60 68 None Calm 8 mph NW 103 - 113 7/29/2016 11:50:00 AM
I-83 AT MD-137 81 72 71 None Calm 8 mph NW - 7/29/2016 11:50:00 AM
I-895 AT I-95 - - - No Data Available - - No Data Available -
I-95 AT I-695 NE 81 66 68 None 4 mph 7 mph N 101 - 97 7/29/2016 11:53:00 AM
I-95 AT Patuxent River 83 69 72 None 4 mph 9 mph NE 103 - 104 7/29/2016 11:50:00 AM
I-95 AT Tydings Bridge 82 72 72 None Calm 8 mph N 100 - 106 7/29/2016 11:50:00 AM
I-95/495 AT I-295 88 61 73 None Calm 6 mph NW 104 - 86 7/29/2016 11:50:00 AM
I-97 AT MD-100 86 60 71 None 4 mph 9 mph NW 103 - 107 7/29/2016 11:50:00 AM
I-97 AT MD-32 82 67 70 None 12 mph 17 mph N 104 - 99 7/29/2016 11:50:00 AM
MD 231 at Patuxent River 82 72 72 None 9 mph 15 mph NW 104 - 110 7/29/2016 11:50:00 AM
MD-135 AT Salt Dome 71 85 67 None Calm 6 mph E 102 - 102 7/29/2016 11:50:00 AM
MD-140 AT MD-97 82 67 70 None 4 mph 13 mph NW 109 - 109 7/29/2016 11:50:00 AM
MD-200 EB AT Bonifant Rd 80 69 69 None 4 mph 11 mph NE 103 - 107 7/29/2016 11:53:00 AM
MD-200 WB AT Muncaster Mill Rd 80 68 69 None Calm 6 mph SW 104 - 104 7/29/2016 11:53:00 AM
MD-213 AT Sassafras River 81 79 74 None Calm 9 mph N 109 - 109 7/29/2016 11:50:00 AM
MD-24 AT Rock St Park 79 80 73 None Calm 8 mph NE 96 - 96 7/29/2016 11:50:00 AM
MD-30 AT PA Line 79 76 71 None 4 mph 11 mph W 106 - 106 7/29/2016 11:50:00 AM
MD-301 AT MD-305 81 73 72 None Calm 6 mph NE - 7/29/2016 11:50:00 AM
MD-33 AT Knapps Narrows Drawbridge 80 74 71 None 13 mph 21 mph N 118 - 118 7/29/2016 11:50:00 AM
MD-344 at MD-224 80 75 71 None Calm 6 mph NE 103 - 103 7/29/2016 11:50:00 AM
MD-4 AT Patuxent River 81 82 75 None - - No Data Available 102 - 99 7/29/2016 11:50:00 AM
MD-404 AT Choptank River 79 75 71 None 8 mph 13 mph N 100 - 98 7/29/2016 11:50:00 AM
MD-43 AT MD-150 82 68 71 None 4 mph 7 mph NE 109 - 113 7/29/2016 11:50:00 AM
MD-51 AT Oldtown Salt Dome 80 73 71 None 4 mph 8 mph W 100 - 100 7/29/2016 11:50:00 AM
US-1 AT Baltimore / Harford Co. Line 82 72 73 None Calm 5 mph N 104 - 107 7/29/2016 11:50:00 AM
US-1 AT Conowingo Dam 81 80 74 None Calm Calm NW 94 - 94 7/29/2016 11:50:00 AM
US-13 AT US-113 82 77 74 None 8 mph 17 mph NW 110 - 112 7/29/2016 11:50:00 AM
US-13 AT US-50 79 83 73 None 7 mph 13 mph N 94 - 97 7/29/2016 11:50:00 AM
US-15 AT MD-140 87 55 69 None Calm 7 mph N 110 - 110 7/29/2016 11:50:00 AM
US-301 AT MD-5 81 74 72 None 6 mph 11 mph N 112 - 113 7/29/2016 11:50:00 AM
US-301 AT Potomac 84 73 74 None 6 mph 11 mph N 103 - 98 7/29/2016 11:50:00 AM
US-340 AT MD-180 80 70 70 None 6 mph 12 mph NW 112 - 113 7/29/2016 11:50:00 AM
US-50 AT Choptank 81 78 74 None 5 mph 9 mph N 102 - 99 7/29/2016 11:50:00 AM
US-50 AT I-95 84 65 71 None Calm 8 mph NE 103 - 133 7/29/2016 11:50:00 AM
US-50 AT MD-2 81 71 71 None 5 mph 13 mph N 112 - 112 7/29/2016 11:50:00 AM
US-50 AT MD-331 80 78 73 None 8 mph 13 mph N 94 - 94 7/29/2016 11:50:00 AM
US-50 AT OC Drawbridge 80 82 74 None 8 mph 14 mph N 99 - 99 7/29/2016 11:50:00 AM
US-50 AT Table Rock Rd 66 100 66 None Calm 6 mph W 87 - 87 7/29/2016 11:50:00 AM
US-50 Kent Narrow Bridge 82 78 75 None 8 mph 14 mph NW 104 - 107 7/29/2016 11:50:00 AM
WPL Pier 31 - - - No Data Available - - No Data Available -
Location Air RH Dwp Precip Type Wind Speed Wind Gust Direction Pavement Temperature Date/Time